Edmonton / Villeneuve (Rose Field)

CRF3 · 艾伯塔, 加拿大

罗盘
风向 的 风向 230°
风: 10 kt, 3 beaufort

添加一条跑道以查看侧风和逆风信息。

添置 跑道
0 ft 5.000 10.000 15.000 20.000
Cloud Cloud Cloud Cloud
SCT 7.000
Cloud Cloud Cloud Cloud Cloud Cloud
BKN 20.000
METAR CYED 061900Z 23010KT 15SM SCT070 BKN200 02/M07 A2969 RMK AC4CI3 DENSITY ALT 1412FT SLP078

METAR Edmonton / Villeneuve (Rose Field) - CRF3

Edmonton / Villeneuve (Rose Field)是,加拿大中的小机场。 视场标高为2.190 ft。 该领域的国际民航组织标志是CRF3.

这份报告是针对2023年2月6日 12:00, 当地时间在Edmonton (CFB Namao) Heliport进行的。

机场观察

风向为230°,速度为10 kt。

可见度为15 mi。

有疏云,零星散落的云朵在7.000 ft的高度 和 碎云在20.000 ft的高度。 破损或更高的上限为20.000 ft。

温度为2 °C,阵风为-4 °C。 露点为-7 °C,相对湿度为52%。 海平面上的气压为29,69 inHg (QNH)。

白天

今天,太阳从08:11升起,在17:27降落。 这适用于Edmonton / Villeneuve (Rose Field),世界夏令时可能有所不同。 当地时间与世界标准时间之间的时差为-7 小时。 当前,没有夏令时有效。

公司介绍

我们没有关于这个机场的公司信息。

体会

到Vliegles.nl去找飞行课程,跳伞和其他飞行体验。 浏览页面,了解Edmonton / Villeneuve (Rose Field)附近所有可用的活动。 你也可以使用搜索功能来寻找你所在地附近的特定飞行课程、跳伞或其他飞行体验。

乌云

7.000 ft SCT 疏云,零星散落的云朵
20.000 ft BKN 碎云

温度 & 天气

温度 2 °C
露点 -7 °C
相对湿度 52%
风寒 -4 °C
Kp-index 3 (0-9)

评论

SLP078海平面压力为29,76 inHg (29,76 inHg)
AC4CI3 DENSITY ALT 1412FT

白天

日出
08:10
中午
12:47
日落
17:25 (4:18)

小工具

你想在你的网站上有一个关于Edmonton / Villeneuve (Rose Field)的当前航空天气(METAR)的小部件吗?

显示HTML代码

我们和第三方通过cookies跟踪您在我们网站上的互联网行为。如果你继续,我们认为你同意我们的饼干政策